sensor_id;sensor_type;location;lat;lon;timestamp;P1;durP1;ratioP1;P2;durP2;ratioP2
19854;SDS011;10088;47.946;2.532;2023-11-19T00:06:19;7.33;;;1.77;;
19854;SDS011;10088;47.946;2.532;2023-11-19T00:36:02;4.40;;;1.40;;
19854;SDS011;10088;47.946;2.532;2023-11-19T00:53:04;1.53;;;1.43;;
19854;SDS011;10088;47.946;2.532;2023-11-19T00:56:19;3.77;;;1.83;;
19854;SDS011;10088;47.946;2.532;2023-11-19T00:59:33;4.70;;;1.60;;
19854;SDS011;10088;47.946;2.532;2023-11-19T01:02:57;3.50;;;1.80;;
19854;SDS011;10088;47.946;2.532;2023-11-19T01:05:29;2.90;;;1.70;;
19854;SDS011;10088;47.946;2.532;2023-11-19T01:07:54;4.03;;;1.30;;
19854;SDS011;10088;47.946;2.532;2023-11-19T01:10:19;4.23;;;1.47;;
19854;SDS011;10088;47.946;2.532;2023-11-19T01:12:45;2.50;;;1.30;;
19854;SDS011;10088;47.946;2.532;2023-11-19T01:15:11;3.00;;;1.50;;
19854;SDS011;10088;47.946;2.532;2023-11-19T01:17:38;3.10;;;1.50;;
19854;SDS011;10088;47.946;2.532;2023-11-19T01:20:03;2.27;;;1.40;;
19854;SDS011;10088;47.946;2.532;2023-11-19T01:22:31;2.10;;;1.40;;
19854;SDS011;10088;47.946;2.532;2023-11-19T01:24:56;5.67;;;1.50;;
19854;SDS011;10088;47.946;2.532;2023-11-19T01:27:23;5.33;;;1.43;;
19854;SDS011;10088;47.946;2.532;2023-11-19T01:29:48;2.00;;;1.10;;
19854;SDS011;10088;47.946;2.532;2023-11-19T01:32:13;1.10;;;0.90;;
19854;SDS011;10088;47.946;2.532;2023-11-19T01:34:39;1.90;;;1.10;;
19854;SDS011;10088;47.946;2.532;2023-11-19T01:37:05;2.53;;;1.27;;
19854;SDS011;10088;47.946;2.532;2023-11-19T01:39:31;2.67;;;1.23;;
19854;SDS011;10088;47.946;2.532;2023-11-19T01:41:56;2.00;;;1.20;;
19854;SDS011;10088;47.946;2.532;2023-11-19T01:44:21;1.73;;;1.20;;
19854;SDS011;10088;47.946;2.532;2023-11-19T01:46:47;4.80;;;1.20;;
19854;SDS011;10088;47.946;2.532;2023-11-19T01:49:14;1.83;;;1.30;;
19854;SDS011;10088;47.946;2.532;2023-11-19T01:51:40;3.03;;;1.30;;
19854;SDS011;10088;47.946;2.532;2023-11-19T01:54:06;2.13;;;1.20;;
19854;SDS011;10088;47.946;2.532;2023-11-19T01:56:32;1.40;;;1.00;;
19854;SDS011;10088;47.946;2.532;2023-11-19T01:58:58;1.90;;;1.43;;
19854;SDS011;10088;47.946;2.532;2023-11-19T02:01:24;2.87;;;1.07;;
19854;SDS011;10088;47.946;2.532;2023-11-19T02:03:49;2.33;;;1.27;;
19854;SDS011;10088;47.946;2.532;2023-11-19T02:06:14;2.90;;;1.40;;
19854;SDS011;10088;47.946;2.532;2023-11-19T02:08:40;2.33;;;1.27;;
19854;SDS011;10088;47.946;2.532;2023-11-19T02:11:05;2.43;;;1.17;;
19854;SDS011;10088;47.946;2.532;2023-11-19T02:13:32;1.73;;;1.10;;
19854;SDS011;10088;47.946;2.532;2023-11-19T02:15:57;2.73;;;0.90;;
19854;SDS011;10088;47.946;2.532;2023-11-19T02:18:25;2.57;;;1.30;;
19854;SDS011;10088;47.946;2.532;2023-11-19T02:20:53;2.60;;;1.00;;
19854;SDS011;10088;47.946;2.532;2023-11-19T02:23:19;1.20;;;1.10;;
19854;SDS011;10088;47.946;2.532;2023-11-19T02:26:02;1.40;;;1.20;;
19854;SDS011;10088;47.946;2.532;2023-11-19T02:28:28;2.10;;;0.90;;
19854;SDS011;10088;47.946;2.532;2023-11-19T02:30:54;1.20;;;1.00;;
19854;SDS011;10088;47.946;2.532;2023-11-19T02:33:19;0.80;;;0.70;;
19854;SDS011;10088;47.946;2.532;2023-11-19T02:35:44;2.13;;;0.90;;
19854;SDS011;10088;47.946;2.532;2023-11-19T02:38:09;4.33;;;0.90;;
19854;SDS011;10088;47.946;2.532;2023-11-19T02:40:36;2.37;;;0.80;;
19854;SDS011;10088;47.946;2.532;2023-11-19T02:43:01;1.43;;;0.80;;
19854;SDS011;10088;47.946;2.532;2023-11-19T02:45:27;1.23;;;0.70;;
19854;SDS011;10088;47.946;2.532;2023-11-19T02:47:52;5.23;;;1.10;;
19854;SDS011;10088;47.946;2.532;2023-11-19T02:50:19;0.63;;;0.63;;
19854;SDS011;10088;47.946;2.532;2023-11-19T02:52:51;1.60;;;1.20;;
19854;SDS011;10088;47.946;2.532;2023-11-19T02:55:16;4.30;;;0.60;;
19854;SDS011;10088;47.946;2.532;2023-11-19T02:57:43;1.33;;;0.90;;
19854;SDS011;10088;47.946;2.532;2023-11-19T03:00:14;1.53;;;1.00;;
19854;SDS011;10088;47.946;2.532;2023-11-19T03:02:40;0.87;;;0.80;;
19854;SDS011;10088;47.946;2.532;2023-11-19T03:05:10;1.83;;;0.90;;
19854;SDS011;10088;47.946;2.532;2023-11-19T03:07:36;1.03;;;0.73;;
19854;SDS011;10088;47.946;2.532;2023-11-19T03:10:01;1.77;;;0.60;;
19854;SDS011;10088;47.946;2.532;2023-11-19T03:12:26;0.83;;;0.83;;
19854;SDS011;10088;47.946;2.532;2023-11-19T03:14:52;1.13;;;0.67;;
19854;SDS011;10088;47.946;2.532;2023-11-19T03:17:17;0.80;;;0.60;;
19854;SDS011;10088;47.946;2.532;2023-11-19T03:19:43;1.13;;;0.67;;
19854;SDS011;10088;47.946;2.532;2023-11-19T03:22:09;1.13;;;0.87;;
19854;SDS011;10088;47.946;2.532;2023-11-19T03:24:36;1.60;;;0.70;;
19854;SDS011;10088;47.946;2.532;2023-11-19T03:27:01;1.00;;;0.63;;
19854;SDS011;10088;47.946;2.532;2023-11-19T03:29:26;5.07;;;0.90;;
19854;SDS011;10088;47.946;2.532;2023-11-19T03:31:53;2.20;;;0.93;;
19854;SDS011;10088;47.946;2.532;2023-11-19T03:34:18;0.67;;;0.67;;
19854;SDS011;10088;47.946;2.532;2023-11-19T03:36:44;1.40;;;0.80;;
19854;SDS011;10088;47.946;2.532;2023-11-19T03:39:09;1.90;;;0.90;;
19854;SDS011;10088;47.946;2.532;2023-11-19T03:41:34;1.23;;;0.67;;
19854;SDS011;10088;47.946;2.532;2023-11-19T03:44:00;0.90;;;0.80;;
19854;SDS011;10088;47.946;2.532;2023-11-19T03:46:25;0.70;;;0.60;;
19854;SDS011;10088;47.946;2.532;2023-11-19T03:48:50;3.97;;;0.77;;
19854;SDS011;10088;47.946;2.532;2023-11-19T03:51:16;1.63;;;0.60;;
19854;SDS011;10088;47.946;2.532;2023-11-19T03:53:44;1.57;;;0.83;;
19854;SDS011;10088;47.946;2.532;2023-11-19T03:56:10;1.20;;;0.87;;
19854;SDS011;10088;47.946;2.532;2023-11-19T03:58:36;0.70;;;0.60;;
19854;SDS011;10088;47.946;2.532;2023-11-19T04:01:03;3.13;;;0.77;;
19854;SDS011;10088;47.946;2.532;2023-11-19T04:03:28;1.20;;;0.90;;
19854;SDS011;10088;47.946;2.532;2023-11-19T04:05:54;2.20;;;0.80;;
19854;SDS011;10088;47.946;2.532;2023-11-19T04:08:19;1.00;;;0.80;;
19854;SDS011;10088;47.946;2.532;2023-11-19T04:10:44;0.73;;;0.73;;
19854;SDS011;10088;47.946;2.532;2023-11-19T04:13:10;0.80;;;0.70;;
19854;SDS011;10088;47.946;2.532;2023-11-19T04:15:35;2.20;;;0.93;;
19854;SDS011;10088;47.946;2.532;2023-11-19T04:18:01;1.87;;;0.93;;
19854;SDS011;10088;47.946;2.532;2023-11-19T04:20:26;3.37;;;1.17;;
19854;SDS011;10088;47.946;2.532;2023-11-19T04:22:51;2.40;;;0.97;;
19854;SDS011;10088;47.946;2.532;2023-11-19T04:25:17;3.37;;;1.20;;
19854;SDS011;10088;47.946;2.532;2023-11-19T04:27:44;5.90;;;1.20;;
19854;SDS011;10088;47.946;2.532;2023-11-19T04:30:09;4.43;;;1.00;;
19854;SDS011;10088;47.946;2.532;2023-11-19T04:32:36;4.10;;;0.90;;
19854;SDS011;10088;47.946;2.532;2023-11-19T04:35:01;3.60;;;0.90;;
19854;SDS011;10088;47.946;2.532;2023-11-19T04:37:26;1.60;;;0.97;;
19854;SDS011;10088;47.946;2.532;2023-11-19T04:39:51;1.40;;;1.10;;
19854;SDS011;10088;47.946;2.532;2023-11-19T04:42:17;2.13;;;1.17;;
19854;SDS011;10088;47.946;2.532;2023-11-19T04:44:43;3.70;;;0.93;;
19854;SDS011;10088;47.946;2.532;2023-11-19T04:47:08;3.93;;;1.27;;
19854;SDS011;10088;47.946;2.532;2023-11-19T04:49:36;3.73;;;2.60;;
19854;SDS011;10088;47.946;2.532;2023-11-19T04:52:04;3.87;;;1.83;;
19854;SDS011;10088;47.946;2.532;2023-11-19T04:54:30;3.47;;;1.57;;
19854;SDS011;10088;47.946;2.532;2023-11-19T04:56:55;2.53;;;0.80;;
19854;SDS011;10088;47.946;2.532;2023-11-19T04:59:20;3.23;;;0.80;;
19854;SDS011;10088;47.946;2.532;2023-11-19T05:01:48;1.73;;;0.80;;
19854;SDS011;10088;47.946;2.532;2023-11-19T05:04:14;5.27;;;1.10;;
19854;SDS011;10088;47.946;2.532;2023-11-19T05:06:39;5.13;;;1.00;;
19854;SDS011;10088;47.946;2.532;2023-11-19T05:09:05;1.80;;;1.00;;
19854;SDS011;10088;47.946;2.532;2023-11-19T05:11:32;1.20;;;0.87;;
19854;SDS011;10088;47.946;2.532;2023-11-19T05:13:59;1.17;;;1.00;;
19854;SDS011;10088;47.946;2.532;2023-11-19T05:16:24;3.40;;;0.83;;
19854;SDS011;10088;47.946;2.532;2023-11-19T05:18:50;2.63;;;0.80;;
19854;SDS011;10088;47.946;2.532;2023-11-19T05:21:15;2.87;;;0.87;;
19854;SDS011;10088;47.946;2.532;2023-11-19T05:23:42;2.27;;;0.97;;
19854;SDS011;10088;47.946;2.532;2023-11-19T05:26:07;1.27;;;1.07;;
19854;SDS011;10088;47.946;2.532;2023-11-19T05:28:33;2.07;;;1.00;;
19854;SDS011;10088;47.946;2.532;2023-11-19T05:30:58;1.30;;;0.97;;
19854;SDS011;10088;47.946;2.532;2023-11-19T05:33:24;1.80;;;1.00;;
19854;SDS011;10088;47.946;2.532;2023-11-19T05:35:49;1.00;;;0.90;;
19854;SDS011;10088;47.946;2.532;2023-11-19T05:38:14;2.90;;;1.10;;
19854;SDS011;10088;47.946;2.532;2023-11-19T05:40:40;2.90;;;1.03;;
19854;SDS011;10088;47.946;2.532;2023-11-19T05:43:06;3.60;;;1.00;;
19854;SDS011;10088;47.946;2.532;2023-11-19T05:45:31;4.17;;;1.17;;
19854;SDS011;10088;47.946;2.532;2023-11-19T05:47:57;2.60;;;1.07;;
19854;SDS011;10088;47.946;2.532;2023-11-19T05:50:22;1.47;;;1.10;;
19854;SDS011;10088;47.946;2.532;2023-11-19T05:52:47;1.63;;;0.70;;
19854;SDS011;10088;47.946;2.532;2023-11-19T05:55:13;2.97;;;1.00;;
19854;SDS011;10088;47.946;2.532;2023-11-19T05:57:39;6.43;;;0.90;;
19854;SDS011;10088;47.946;2.532;2023-11-19T06:00:07;1.83;;;0.77;;
19854;SDS011;10088;47.946;2.532;2023-11-19T06:02:40;2.17;;;0.80;;
19854;SDS011;10088;47.946;2.532;2023-11-19T06:05:05;5.20;;;1.73;;
19854;SDS011;10088;47.946;2.532;2023-11-19T06:07:34;4.97;;;1.43;;
19854;SDS011;10088;47.946;2.532;2023-11-19T06:10:01;7.83;;;2.60;;
19854;SDS011;10088;47.946;2.532;2023-11-19T06:12:27;2.23;;;0.87;;
19854;SDS011;10088;47.946;2.532;2023-11-19T06:14:53;2.57;;;0.80;;
19854;SDS011;10088;47.946;2.532;2023-11-19T06:17:18;14.53;;;8.13;;
19854;SDS011;10088;47.946;2.532;2023-11-19T06:19:43;3.40;;;1.27;;
19854;SDS011;10088;47.946;2.532;2023-11-19T06:22:10;7.13;;;2.33;;
19854;SDS011;10088;47.946;2.532;2023-11-19T06:24:35;12.07;;;4.23;;
19854;SDS011;10088;47.946;2.532;2023-11-19T06:27:00;8.73;;;4.47;;
19854;SDS011;10088;47.946;2.532;2023-11-19T06:29:26;6.73;;;2.37;;
19854;SDS011;10088;47.946;2.532;2023-11-19T06:31:51;10.33;;;4.20;;
19854;SDS011;10088;47.946;2.532;2023-11-19T06:34:16;1.47;;;0.90;;
19854;SDS011;10088;47.946;2.532;2023-11-19T06:36:42;6.60;;;2.50;;
19854;SDS011;10088;47.946;2.532;2023-11-19T06:39:10;4.37;;;1.00;;
19854;SDS011;10088;47.946;2.532;2023-11-19T06:41:43;3.80;;;1.00;;
19854;SDS011;10088;47.946;2.532;2023-11-19T06:44:09;3.10;;;1.00;;
19854;SDS011;10088;47.946;2.532;2023-11-19T06:46:34;1.97;;;0.90;;
19854;SDS011;10088;47.946;2.532;2023-11-19T06:49:00;3.33;;;1.00;;
19854;SDS011;10088;47.946;2.532;2023-11-19T06:51:26;4.10;;;1.10;;
19854;SDS011;10088;47.946;2.532;2023-11-19T06:53:51;6.10;;;1.20;;
19854;SDS011;10088;47.946;2.532;2023-11-19T06:56:20;2.80;;;1.03;;
19854;SDS011;10088;47.946;2.532;2023-11-19T06:58:46;4.63;;;1.20;;
19854;SDS011;10088;47.946;2.532;2023-11-19T07:01:12;2.73;;;0.90;;
19854;SDS011;10088;47.946;2.532;2023-11-19T07:03:38;2.30;;;1.00;;
19854;SDS011;10088;47.946;2.532;2023-11-19T07:06:03;5.50;;;1.03;;
19854;SDS011;10088;47.946;2.532;2023-11-19T07:08:29;6.23;;;1.10;;
19854;SDS011;10088;47.946;2.532;2023-11-19T07:10:54;4.37;;;1.10;;
19854;SDS011;10088;47.946;2.532;2023-11-19T07:13:19;2.43;;;1.23;;
19854;SDS011;10088;47.946;2.532;2023-11-19T07:15:44;3.40;;;0.93;;
19854;SDS011;10088;47.946;2.532;2023-11-19T07:18:10;5.17;;;1.13;;
19854;SDS011;10088;47.946;2.532;2023-11-19T07:20:36;3.10;;;0.87;;
19854;SDS011;10088;47.946;2.532;2023-11-19T07:23:03;2.93;;;0.97;;
19854;SDS011;10088;47.946;2.532;2023-11-19T07:25:28;4.10;;;1.07;;
19854;SDS011;10088;47.946;2.532;2023-11-19T07:27:53;7.43;;;1.20;;
19854;SDS011;10088;47.946;2.532;2023-11-19T07:30:18;5.00;;;0.87;;
19854;SDS011;10088;47.946;2.532;2023-11-19T07:32:44;1.77;;;1.00;;
19854;SDS011;10088;47.946;2.532;2023-11-19T07:35:09;3.70;;;0.77;;
19854;SDS011;10088;47.946;2.532;2023-11-19T07:37:34;2.60;;;0.93;;
19854;SDS011;10088;47.946;2.532;2023-11-19T07:40:00;5.20;;;0.80;;
19854;SDS011;10088;47.946;2.532;2023-11-19T07:42:25;4.37;;;1.10;;
19854;SDS011;10088;47.946;2.532;2023-11-19T07:44:50;2.30;;;0.90;;
19854;SDS011;10088;47.946;2.532;2023-11-19T07:47:16;5.10;;;0.97;;
19854;SDS011;10088;47.946;2.532;2023-11-19T07:49:41;6.13;;;1.23;;
19854;SDS011;10088;47.946;2.532;2023-11-19T07:52:08;4.33;;;1.07;;
19854;SDS011;10088;47.946;2.532;2023-11-19T07:54:34;3.90;;;1.13;;
19854;SDS011;10088;47.946;2.532;2023-11-19T07:56:59;2.77;;;0.77;;
19854;SDS011;10088;47.946;2.532;2023-11-19T07:59:24;3.60;;;1.00;;
19854;SDS011;10088;47.946;2.532;2023-11-19T08:01:50;4.63;;;1.07;;
19854;SDS011;10088;47.946;2.532;2023-11-19T08:04:15;3.00;;;1.10;;
19854;SDS011;10088;47.946;2.532;2023-11-19T08:06:40;2.93;;;0.90;;
19854;SDS011;10088;47.946;2.532;2023-11-19T08:09:06;3.23;;;1.20;;
19854;SDS011;10088;47.946;2.532;2023-11-19T08:11:31;5.17;;;0.97;;
19854;SDS011;10088;47.946;2.532;2023-11-19T08:13:57;7.77;;;1.17;;
19854;SDS011;10088;47.946;2.532;2023-11-19T08:16:22;4.77;;;1.30;;
19854;SDS011;10088;47.946;2.532;2023-11-19T08:18:47;6.30;;;1.30;;
19854;SDS011;10088;47.946;2.532;2023-11-19T08:21:13;4.80;;;0.97;;
19854;SDS011;10088;47.946;2.532;2023-11-19T08:23:38;4.57;;;1.20;;
19854;SDS011;10088;47.946;2.532;2023-11-19T08:26:04;4.50;;;1.13;;
19854;SDS011;10088;47.946;2.532;2023-11-19T08:28:30;6.50;;;1.73;;
19854;SDS011;10088;47.946;2.532;2023-11-19T08:30:56;4.80;;;1.00;;
19854;SDS011;10088;47.946;2.532;2023-11-19T08:33:21;5.67;;;1.10;;
19854;SDS011;10088;47.946;2.532;2023-11-19T08:35:47;3.97;;;1.50;;
19854;SDS011;10088;47.946;2.532;2023-11-19T08:38:13;6.13;;;1.23;;
19854;SDS011;10088;47.946;2.532;2023-11-19T08:40:38;4.27;;;1.47;;
19854;SDS011;10088;47.946;2.532;2023-11-19T08:43:03;5.60;;;1.00;;
19854;SDS011;10088;47.946;2.532;2023-11-19T08:45:29;5.97;;;1.63;;
19854;SDS011;10088;47.946;2.532;2023-11-19T08:47:55;7.97;;;1.53;;
19854;SDS011;10088;47.946;2.532;2023-11-19T08:50:20;7.03;;;1.50;;
19854;SDS011;10088;47.946;2.532;2023-11-19T08:52:45;9.13;;;1.50;;
19854;SDS011;10088;47.946;2.532;2023-11-19T08:55:10;8.13;;;1.50;;
19854;SDS011;10088;47.946;2.532;2023-11-19T08:57:38;10.20;;;1.73;;
19854;SDS011;10088;47.946;2.532;2023-11-19T09:00:04;3.83;;;1.17;;
19854;SDS011;10088;47.946;2.532;2023-11-19T09:02:33;7.30;;;1.80;;
19854;SDS011;10088;47.946;2.532;2023-11-19T09:04:59;7.77;;;1.07;;
19854;SDS011;10088;47.946;2.532;2023-11-19T09:07:24;5.83;;;1.53;;
19854;SDS011;10088;47.946;2.532;2023-11-19T09:09:49;5.73;;;1.53;;
19854;SDS011;10088;47.946;2.532;2023-11-19T09:12:14;10.73;;;1.83;;
19854;SDS011;10088;47.946;2.532;2023-11-19T09:14:40;7.50;;;1.40;;
19854;SDS011;10088;47.946;2.532;2023-11-19T09:17:06;6.03;;;1.57;;
19854;SDS011;10088;47.946;2.532;2023-11-19T09:19:32;8.47;;;1.40;;
19854;SDS011;10088;47.946;2.532;2023-11-19T09:21:58;9.73;;;1.53;;
19854;SDS011;10088;47.946;2.532;2023-11-19T09:24:23;9.50;;;1.83;;
19854;SDS011;10088;47.946;2.532;2023-11-19T09:26:48;9.80;;;1.97;;
19854;SDS011;10088;47.946;2.532;2023-11-19T09:29:14;5.37;;;1.20;;
19854;SDS011;10088;47.946;2.532;2023-11-19T09:31:39;10.77;;;1.50;;
19854;SDS011;10088;47.946;2.532;2023-11-19T09:34:05;9.23;;;1.80;;
19854;SDS011;10088;47.946;2.532;2023-11-19T09:36:30;4.83;;;1.47;;
19854;SDS011;10088;47.946;2.532;2023-11-19T09:38:56;7.57;;;1.50;;
19854;SDS011;10088;47.946;2.532;2023-11-19T09:41:21;7.00;;;1.50;;
19854;SDS011;10088;47.946;2.532;2023-11-19T09:43:47;9.07;;;2.73;;
19854;SDS011;10088;47.946;2.532;2023-11-19T09:46:13;4.90;;;1.27;;
19854;SDS011;10088;47.946;2.532;2023-11-19T09:48:40;5.30;;;1.60;;
19854;SDS011;10088;47.946;2.532;2023-11-19T09:51:06;8.10;;;1.07;;
19854;SDS011;10088;47.946;2.532;2023-11-19T09:53:31;5.20;;;1.50;;
19854;SDS011;10088;47.946;2.532;2023-11-19T09:55:57;7.43;;;1.60;;
19854;SDS011;10088;47.946;2.532;2023-11-19T09:58:24;7.53;;;1.73;;
19854;SDS011;10088;47.946;2.532;2023-11-19T10:00:50;6.20;;;1.23;;
19854;SDS011;10088;47.946;2.532;2023-11-19T10:03:17;5.97;;;1.50;;
19854;SDS011;10088;47.946;2.532;2023-11-19T10:05:42;7.47;;;1.73;;
19854;SDS011;10088;47.946;2.532;2023-11-19T10:08:07;5.73;;;1.40;;
19854;SDS011;10088;47.946;2.532;2023-11-19T10:10:33;7.87;;;2.07;;
19854;SDS011;10088;47.946;2.532;2023-11-19T10:12:59;6.53;;;1.60;;
19854;SDS011;10088;47.946;2.532;2023-11-19T10:15:25;5.23;;;1.53;;
19854;SDS011;10088;47.946;2.532;2023-11-19T10:17:52;6.60;;;1.33;;
19854;SDS011;10088;47.946;2.532;2023-11-19T10:20:19;11.70;;;2.60;;
19854;SDS011;10088;47.946;2.532;2023-11-19T10:22:45;7.03;;;1.80;;
19854;SDS011;10088;47.946;2.532;2023-11-19T10:25:26;11.60;;;3.03;;
19854;SDS011;10088;47.946;2.532;2023-11-19T10:27:52;4.10;;;1.80;;
19854;SDS011;10088;47.946;2.532;2023-11-19T10:36:59;6.93;;;1.63;;
19854;SDS011;10088;47.946;2.532;2023-11-19T10:39:57;6.27;;;1.67;;
19854;SDS011;10088;47.946;2.532;2023-11-19T10:43:02;8.30;;;1.63;;
19854;SDS011;10088;47.946;2.532;2023-11-19T10:46:16;6.60;;;1.90;;
19854;SDS011;10088;47.946;2.532;2023-11-19T10:49:02;6.07;;;1.53;;
19854;SDS011;10088;47.946;2.532;2023-11-19T10:51:54;6.13;;;2.23;;
19854;SDS011;10088;47.946;2.532;2023-11-19T10:55:14;7.93;;;2.00;;
19854;SDS011;10088;47.946;2.532;2023-11-19T10:58:24;8.33;;;1.70;;
19854;SDS011;10088;47.946;2.532;2023-11-19T11:01:56;4.60;;;1.23;;
19854;SDS011;10088;47.946;2.532;2023-11-19T11:08:34;6.73;;;1.60;;
19854;SDS011;10088;47.946;2.532;2023-11-19T11:11:33;8.57;;;2.13;;
19854;SDS011;10088;47.946;2.532;2023-11-19T11:17:43;3.77;;;1.13;;
19854;SDS011;10088;47.946;2.532;2023-11-19T11:20:47;5.53;;;1.37;;
19854;SDS011;10088;47.946;2.532;2023-11-19T11:27:01;5.37;;;1.50;;
19854;SDS011;10088;47.946;2.532;2023-11-19T11:36:37;5.40;;;1.30;;
19854;SDS011;10088;47.946;2.532;2023-11-19T11:39:11;9.17;;;1.67;;
19854;SDS011;10088;47.946;2.532;2023-11-19T11:45:17;8.67;;;1.90;;
19854;SDS011;10088;47.946;2.532;2023-11-19T11:48:19;11.20;;;2.03;;
19854;SDS011;10088;47.946;2.532;2023-11-19T11:55:08;7.93;;;1.90;;
19854;SDS011;10088;47.946;2.532;2023-11-19T12:01:25;9.87;;;2.00;;
19854;SDS011;10088;47.946;2.532;2023-11-19T12:04:17;4.63;;;1.27;;
19854;SDS011;10088;47.946;2.532;2023-11-19T12:07:54;11.77;;;2.30;;
19854;SDS011;10088;47.946;2.532;2023-11-19T12:17:02;10.27;;;2.57;;
19854;SDS011;10088;47.946;2.532;2023-11-19T12:30:11;4.03;;;1.17;;
19854;SDS011;10088;47.946;2.532;2023-11-19T12:33:19;6.67;;;1.87;;
19854;SDS011;10088;47.946;2.532;2023-11-19T12:39:16;4.67;;;1.40;;
19854;SDS011;10088;47.946;2.532;2023-11-19T12:41:54;8.93;;;1.40;;
19854;SDS011;10088;47.946;2.532;2023-11-19T12:44:27;6.73;;;1.43;;
19854;SDS011;10088;47.946;2.532;2023-11-19T12:47:35;6.60;;;1.47;;
19854;SDS011;10088;47.946;2.532;2023-11-19T12:51:10;6.93;;;1.70;;
19854;SDS011;10088;47.946;2.532;2023-11-19T12:54:01;5.30;;;1.53;;
19854;SDS011;10088;47.946;2.532;2023-11-19T12:57:52;4.30;;;1.10;;
19854;SDS011;10088;47.946;2.532;2023-11-19T13:00:48;8.80;;;1.67;;
19854;SDS011;10088;47.946;2.532;2023-11-19T13:03:13;7.30;;;1.53;;
19854;SDS011;10088;47.946;2.532;2023-11-19T13:06:00;5.80;;;1.30;;
19854;SDS011;10088;47.946;2.532;2023-11-19T13:08:26;9.90;;;1.63;;
19854;SDS011;10088;47.946;2.532;2023-11-19T13:10:52;7.30;;;1.87;;
19854;SDS011;10088;47.946;2.532;2023-11-19T13:13:18;8.87;;;1.47;;
19854;SDS011;10088;47.946;2.532;2023-11-19T13:15:44;10.13;;;1.83;;
19854;SDS011;10088;47.946;2.532;2023-11-19T13:18:12;7.33;;;1.40;;
19854;SDS011;10088;47.946;2.532;2023-11-19T13:20:37;7.27;;;1.90;;
19854;SDS011;10088;47.946;2.532;2023-11-19T13:23:04;6.57;;;1.33;;
19854;SDS011;10088;47.946;2.532;2023-11-19T13:25:30;5.27;;;1.17;;
19854;SDS011;10088;47.946;2.532;2023-11-19T13:27:56;5.33;;;1.30;;
19854;SDS011;10088;47.946;2.532;2023-11-19T13:30:21;6.87;;;1.60;;
19854;SDS011;10088;47.946;2.532;2023-11-19T13:32:47;9.70;;;1.60;;
19854;SDS011;10088;47.946;2.532;2023-11-19T13:35:13;9.60;;;1.53;;
19854;SDS011;10088;47.946;2.532;2023-11-19T13:37:38;9.13;;;2.03;;
19854;SDS011;10088;47.946;2.532;2023-11-19T13:40:04;5.63;;;1.27;;
19854;SDS011;10088;47.946;2.532;2023-11-19T13:42:30;7.97;;;1.60;;
19854;SDS011;10088;47.946;2.532;2023-11-19T13:44:55;5.30;;;1.20;;
19854;SDS011;10088;47.946;2.532;2023-11-19T13:47:21;7.70;;;1.43;;
19854;SDS011;10088;47.946;2.532;2023-11-19T13:49:46;5.27;;;1.20;;
19854;SDS011;10088;47.946;2.532;2023-11-19T13:52:12;8.27;;;1.83;;
19854;SDS011;10088;47.946;2.532;2023-11-19T13:54:37;6.87;;;1.20;;
19854;SDS011;10088;47.946;2.532;2023-11-19T13:57:03;7.67;;;1.53;;
19854;SDS011;10088;47.946;2.532;2023-11-19T13:59:29;8.07;;;1.83;;
19854;SDS011;10088;47.946;2.532;2023-11-19T14:01:56;8.60;;;1.70;;
19854;SDS011;10088;47.946;2.532;2023-11-19T14:04:21;6.33;;;1.50;;
19854;SDS011;10088;47.946;2.532;2023-11-19T14:06:46;7.57;;;1.77;;
19854;SDS011;10088;47.946;2.532;2023-11-19T14:09:12;7.40;;;1.37;;
19854;SDS011;10088;47.946;2.532;2023-11-19T14:11:38;6.27;;;1.70;;
19854;SDS011;10088;47.946;2.532;2023-11-19T14:14:03;8.27;;;2.20;;
19854;SDS011;10088;47.946;2.532;2023-11-19T14:16:28;6.20;;;1.67;;
19854;SDS011;10088;47.946;2.532;2023-11-19T14:18:54;5.07;;;1.63;;
19854;SDS011;10088;47.946;2.532;2023-11-19T14:21:20;3.90;;;1.43;;
19854;SDS011;10088;47.946;2.532;2023-11-19T14:23:45;3.90;;;1.20;;
19854;SDS011;10088;47.946;2.532;2023-11-19T14:26:10;9.77;;;1.90;;
19854;SDS011;10088;47.946;2.532;2023-11-19T14:28:35;7.47;;;2.30;;
19854;SDS011;10088;47.946;2.532;2023-11-19T14:31:01;6.53;;;1.60;;
19854;SDS011;10088;47.946;2.532;2023-11-19T14:33:26;5.37;;;1.70;;
19854;SDS011;10088;47.946;2.532;2023-11-19T14:35:52;8.37;;;1.70;;
19854;SDS011;10088;47.946;2.532;2023-11-19T14:38:17;6.73;;;1.60;;
19854;SDS011;10088;47.946;2.532;2023-11-19T14:40:42;7.87;;;1.83;;
19854;SDS011;10088;47.946;2.532;2023-11-19T14:43:08;13.23;;;1.80;;
19854;SDS011;10088;47.946;2.532;2023-11-19T14:45:35;7.87;;;1.53;;
19854;SDS011;10088;47.946;2.532;2023-11-19T14:48:00;7.03;;;1.60;;
19854;SDS011;10088;47.946;2.532;2023-11-19T14:50:26;6.50;;;1.53;;
19854;SDS011;10088;47.946;2.532;2023-11-19T14:52:51;7.70;;;2.10;;
19854;SDS011;10088;47.946;2.532;2023-11-19T14:55:16;8.60;;;1.80;;
19854;SDS011;10088;47.946;2.532;2023-11-19T14:57:42;7.67;;;2.23;;
19854;SDS011;10088;47.946;2.532;2023-11-19T15:00:09;10.77;;;2.33;;
19854;SDS011;10088;47.946;2.532;2023-11-19T15:02:38;9.43;;;2.27;;
19854;SDS011;10088;47.946;2.532;2023-11-19T15:05:04;13.17;;;2.40;;
19854;SDS011;10088;47.946;2.532;2023-11-19T15:07:29;7.27;;;1.73;;
19854;SDS011;10088;47.946;2.532;2023-11-19T15:09:54;8.20;;;1.43;;
19854;SDS011;10088;47.946;2.532;2023-11-19T15:12:20;9.17;;;2.07;;
19854;SDS011;10088;47.946;2.532;2023-11-19T15:14:47;7.80;;;1.90;;
19854;SDS011;10088;47.946;2.532;2023-11-19T15:17:12;8.10;;;1.90;;
19854;SDS011;10088;47.946;2.532;2023-11-19T15:19:38;7.73;;;1.90;;
19854;SDS011;10088;47.946;2.532;2023-11-19T15:22:04;8.50;;;2.17;;
19854;SDS011;10088;47.946;2.532;2023-11-19T15:24:30;9.53;;;2.23;;
19854;SDS011;10088;47.946;2.532;2023-11-19T15:26:55;9.77;;;2.70;;
19854;SDS011;10088;47.946;2.532;2023-11-19T15:29:21;7.13;;;1.83;;
19854;SDS011;10088;47.946;2.532;2023-11-19T15:31:48;9.03;;;1.80;;
19854;SDS011;10088;47.946;2.532;2023-11-19T15:34:13;10.47;;;1.63;;
19854;SDS011;10088;47.946;2.532;2023-11-19T15:36:38;8.37;;;2.00;;
19854;SDS011;10088;47.946;2.532;2023-11-19T15:39:04;10.57;;;2.53;;
19854;SDS011;10088;47.946;2.532;2023-11-19T15:41:29;10.30;;;4.07;;
19854;SDS011;10088;47.946;2.532;2023-11-19T15:43:56;8.00;;;1.57;;
19854;SDS011;10088;47.946;2.532;2023-11-19T15:46:22;10.30;;;2.17;;
19854;SDS011;10088;47.946;2.532;2023-11-19T15:48:48;9.10;;;2.27;;
19854;SDS011;10088;47.946;2.532;2023-11-19T15:51:13;8.50;;;2.27;;
19854;SDS011;10088;47.946;2.532;2023-11-19T16:00:31;13.87;;;2.23;;
19854;SDS011;10088;47.946;2.532;2023-11-19T16:03:40;10.17;;;2.00;;
19854;SDS011;10088;47.946;2.532;2023-11-19T16:10:09;4.73;;;1.57;;
19854;SDS011;10088;47.946;2.532;2023-11-19T16:13:03;7.27;;;1.80;;
19854;SDS011;10088;47.946;2.532;2023-11-19T16:16:23;8.13;;;1.80;;
19854;SDS011;10088;47.946;2.532;2023-11-19T16:19:40;12.80;;;2.40;;
19854;SDS011;10088;47.946;2.532;2023-11-19T16:22:45;9.57;;;2.37;;
19854;SDS011;10088;47.946;2.532;2023-11-19T16:25:21;7.23;;;1.77;;
19854;SDS011;10088;47.946;2.532;2023-11-19T16:28:35;5.23;;;1.80;;
19854;SDS011;10088;47.946;2.532;2023-11-19T16:31:00;8.83;;;1.83;;
19854;SDS011;10088;47.946;2.532;2023-11-19T16:33:25;9.03;;;2.67;;
19854;SDS011;10088;47.946;2.532;2023-11-19T16:35:52;6.23;;;2.03;;
19854;SDS011;10088;47.946;2.532;2023-11-19T16:38:17;8.40;;;2.10;;
19854;SDS011;10088;47.946;2.532;2023-11-19T16:40:42;9.10;;;2.20;;
19854;SDS011;10088;47.946;2.532;2023-11-19T16:43:08;9.93;;;1.83;;
19854;SDS011;10088;47.946;2.532;2023-11-19T16:45:33;8.63;;;2.17;;
19854;SDS011;10088;47.946;2.532;2023-11-19T16:47:58;8.30;;;2.10;;
19854;SDS011;10088;47.946;2.532;2023-11-19T16:50:24;11.37;;;2.50;;
19854;SDS011;10088;47.946;2.532;2023-11-19T16:52:49;6.77;;;2.70;;
19854;SDS011;10088;47.946;2.532;2023-11-19T16:55:14;5.77;;;2.20;;
19854;SDS011;10088;47.946;2.532;2023-11-19T16:57:41;9.03;;;3.00;;